Time;durP1;ratioP1;P1;durP2;ratioP2;P2;SDS_P1;SDS_P2;PMS_P1;PMS_P2;Temp;Humidity;BMP_temperature;BMP_pressure;BME280_temperature;BME280_humidity;BME280_pressure;Samples;Min_cycle;Max_cycle;Signal;HPM_P1;HPM_P2
2023/01/24 00:01:13;;;;;;;14.48;6.85;;;4.10;99.90;;;;;;5011543;28;20076;-74
2023/01/24 00:03:39;;;;;;;12.40;6.30;;;4.10;99.90;;;;;;5011435;28;20042;-73
2023/01/24 00:06:05;;;;;;;13.90;7.25;;;4.10;99.90;;;;;;5011077;28;20040;-73
2023/01/24 00:08:30;;;;;;;12.57;6.00;;;4.10;99.90;;;;;;5009991;28;20129;-74
2023/01/24 00:11:04;;;;;;;10.52;5.70;;;4.10;99.90;;;;;;5011319;28;20487;-73
2023/01/24 00:13:31;;;;;;;11.10;6.05;;;4.10;99.90;;;;;;5006622;28;20088;-74
2023/01/24 00:16:07;;;;;;;10.90;5.32;;;4.10;99.90;;;;;;5012811;28;20037;-73
2023/01/24 00:18:33;;;;;;;13.57;6.82;;;4.10;99.90;;;;;;5007052;28;20040;-77
2023/01/24 00:21:09;;;;;;;11.27;5.38;;;4.10;99.90;;;;;;5013307;28;20033;-73
2023/01/24 00:23:35;;;;;;;12.27;6.22;;;4.10;99.90;;;;;;5008770;28;20041;-74
2023/01/24 00:26:01;;;;;;;12.75;5.60;;;4.10;99.90;;;;;;5011026;28;20037;-73
2023/01/24 00:28:27;;;;;;;12.15;6.20;;;4.00;99.90;;;;;;5011001;28;20088;-73
2023/01/24 00:30:52;;;;;;;13.68;6.20;;;4.00;99.90;;;;;;5010339;28;20459;-74
2023/01/24 00:33:18;;;;;;;12.40;5.88;;;4.00;99.90;;;;;;5010561;28;20041;-73
2023/01/24 00:35:43;;;;;;;12.27;6.05;;;4.00;99.90;;;;;;5010010;28;20034;-74
2023/01/24 00:38:09;;;;;;;10.88;5.72;;;4.00;99.90;;;;;;5008275;28;20120;-74
2023/01/24 00:40:35;;;;;;;23.60;6.47;;;4.10;99.90;;;;;;5008964;28;20041;-75
2023/01/24 00:43:00;;;;;;;12.27;6.13;;;4.00;99.90;;;;;;5008325;28;20053;-73
2023/01/24 00:45:26;;;;;;;13.73;6.70;;;4.00;99.90;;;;;;5008547;28;20058;-74
2023/01/24 00:47:51;;;;;;;12.48;6.05;;;4.10;99.90;;;;;;5008716;28;20096;-75
2023/01/24 00:50:19;;;;;;;11.43;5.57;;;4.00;99.90;;;;;;5011741;28;20077;-73
2023/01/24 00:52:44;;;;;;;17.08;6.05;;;4.00;99.90;;;;;;5008777;28;20034;-75
2023/01/24 00:55:10;;;;;;;12.45;5.68;;;4.00;99.90;;;;;;5009188;28;20100;-73
2023/01/24 00:57:35;;;;;;;17.75;6.60;;;4.00;99.90;;;;;;5010196;28;20034;-76
2023/01/24 01:00:01;;;;;;;9.82;5.65;;;4.00;99.90;;;;;;5009324;28;20045;-74
2023/01/24 01:02:27;;;;;;;10.77;5.40;;;3.90;99.90;;;;;;5010001;28;20049;-75
2023/01/24 01:04:52;;;;;;;12.70;6.18;;;3.90;99.90;;;;;;5007727;28;20042;-75
2023/01/24 01:07:20;;;;;;;12.82;5.85;;;4.00;99.90;;;;;;5009565;28;20062;-75
2023/01/24 01:09:46;;;;;;;11.93;5.85;;;3.90;99.90;;;;;;5008987;28;20124;-75
2023/01/24 01:12:12;;;;;;;12.55;5.82;;;4.00;99.90;;;;;;5008140;28;20061;-76
2023/01/24 01:14:37;;;;;;;12.63;6.40;;;3.90;99.90;;;;;;5009432;28;20108;-75
2023/01/24 01:17:03;;;;;;;11.45;5.55;;;3.90;99.90;;;;;;5007376;28;20030;-74
2023/01/24 01:19:28;;;;;;;14.23;6.57;;;4.00;99.90;;;;;;5007842;28;20081;-75
2023/01/24 01:21:54;;;;;;;13.23;6.15;;;3.90;99.90;;;;;;5007996;28;20030;-74
2023/01/24 01:24:20;;;;;;;11.32;6.07;;;4.00;99.90;;;;;;5008613;28;20104;-73
2023/01/24 01:26:45;;;;;;;14.85;6.93;;;3.90;99.90;;;;;;5008573;28;20061;-74
2023/01/24 01:29:11;;;;;;;11.63;6.25;;;3.90;99.90;;;;;;5006877;28;20069;-75
2023/01/24 01:31:37;;;;;;;14.40;7.28;;;4.00;99.90;;;;;;5008286;28;20505;-73
2023/01/24 01:34:02;;;;;;;12.27;6.25;;;4.00;99.90;;;;;;5007952;28;20502;-73
2023/01/24 01:36:28;;;;;;;16.83;6.57;;;4.00;99.90;;;;;;5008857;28;20061;-74
2023/01/24 01:38:54;;;;;;;12.20;6.22;;;3.90;99.90;;;;;;5008793;28;20045;-74
2023/01/24 01:41:19;;;;;;;13.10;6.15;;;3.90;99.90;;;;;;5008626;28;20040;-73
2023/01/24 01:46:41;;;;;;;11.93;5.95;;;4.00;99.90;;;;;;5005812;28;20040;-73
2023/01/24 01:49:20;;;;;;;12.50;6.13;;;3.90;99.90;;;;;;5008587;28;20419;-74
2023/01/24 01:51:50;;;;;;;12.07;5.97;;;3.90;99.90;;;;;;5007027;28;20038;-73
2023/01/24 01:54:27;;;;;;;14.98;6.82;;;3.90;99.90;;;;;;5008995;28;20030;-73
2023/01/24 01:56:59;;;;;;;13.38;6.50;;;4.00;99.90;;;;;;5009779;28;20076;-74
2023/01/24 01:59:28;;;;;;;14.20;6.68;;;3.90;99.90;;;;;;5004098;28;20050;-74
2023/01/24 02:01:57;;;;;;;15.35;7.40;;;3.90;99.90;;;;;;5007224;28;20033;-73
2023/01/24 02:04:29;;;;;;;15.98;6.90;;;3.90;99.90;;;;;;5006684;28;20029;-74
2023/01/24 02:07:06;;;;;;;13.20;6.43;;;3.90;99.90;;;;;;5007110;28;20037;-73
2023/01/24 02:09:36;;;;;;;14.07;6.70;;;3.90;99.90;;;;;;5007067;28;20494;-75
2023/01/24 02:12:06;;;;;;;15.75;7.15;;;3.90;99.90;;;;;;5006117;28;20045;-75
2023/01/24 02:17:18;;;;;;;15.13;7.25;;;3.80;99.90;;;;;;5010532;28;20087;-73
2023/01/24 02:19:43;;;;;;;13.35;6.72;;;3.80;99.90;;;;;;5006654;28;20057;-76
2023/01/24 02:22:20;;;;;;;14.18;6.85;;;3.70;99.90;;;;;;5008430;28;20029;-74
2023/01/24 02:24:59;;;;;;;16.40;6.90;;;3.80;99.90;;;;;;5005911;28;20034;-74
2023/01/24 02:27:24;;;;;;;14.90;7.18;;;3.80;99.90;;;;;;5007495;28;20041;-72
2023/01/24 02:29:50;;;;;;;17.73;7.45;;;3.80;99.90;;;;;;5006742;28;20030;-73
2023/01/24 02:32:17;;;;;;;15.48;7.82;;;3.80;99.90;;;;;;5008014;28;20028;-76
2023/01/24 02:34:42;;;;;;;15.93;7.13;;;3.90;99.90;;;;;;5006192;28;20053;-74
2023/01/24 02:37:13;;;;;;;15.00;7.00;;;3.80;99.90;;;;;;5006879;28;20034;-75
2023/01/24 02:39:38;;;;;;;15.70;7.28;;;3.80;99.90;;;;;;5007693;28;20038;-74
2023/01/24 02:42:10;;;;;;;16.80;7.75;;;3.80;99.90;;;;;;5007753;28;20034;-74
2023/01/24 02:44:53;;;;;;;14.32;6.68;;;3.80;99.90;;;;;;5008086;28;20826;-74
2023/01/24 02:47:18;;;;;;;16.75;7.65;;;3.80;99.90;;;;;;5003912;28;20030;-73
2023/01/24 02:49:44;;;;;;;15.30;6.97;;;3.80;99.90;;;;;;5004626;28;20033;-74
2023/01/24 02:54:54;;;;;;;14.68;6.70;;;3.80;99.90;;;;;;5004695;28;20095;-74
2023/01/24 03:00:06;;;;;;;12.48;5.70;;;3.70;99.90;;;;;;5001016;28;20044;-74
2023/01/24 03:02:32;;;;;;;13.30;6.50;;;3.70;99.90;;;;;;5007605;28;20436;-74
2023/01/24 03:04:57;;;;;;;13.80;6.25;;;3.80;99.90;;;;;;5007021;28;20030;-73
2023/01/24 03:07:23;;;;;;;13.32;6.05;;;3.80;99.90;;;;;;5007588;28;20543;-75
2023/01/24 03:09:49;;;;;;;18.48;6.80;;;3.80;99.90;;;;;;5005952;28;20049;-74
2023/01/24 03:34:32;;;;;;;13.90;6.43;;;3.70;99.90;;;;;;5007973;28;20430;-74
2023/01/24 03:36:58;;;;;;;13.25;6.10;;;3.80;99.90;;;;;;5005745;28;20038;-72
2023/01/24 03:42:08;;;;;;;14.75;6.78;;;3.70;99.90;;;;;;5007467;28;20414;-74
2023/01/24 03:44:34;;;;;;;11.55;5.88;;;3.70;99.90;;;;;;5007406;28;20030;-74
2023/01/24 03:46:59;;;;;;;13.18;5.88;;;3.70;99.90;;;;;;5005436;28;20038;-73
2023/01/24 03:52:25;;;;;;;14.57;6.43;;;3.70;99.90;;;;;;5006810;28;20033;-74
2023/01/24 03:54:51;;;;;;;12.45;5.55;;;3.80;99.90;;;;;;5004376;28;20030;-73
2023/01/24 03:57:16;;;;;;;12.43;6.00;;;3.80;99.90;;;;;;5006843;28;20041;-74
2023/01/24 03:59:42;;;;;;;13.18;5.88;;;3.70;99.90;;;;;;5007178;28;20026;-73
2023/01/24 04:02:08;;;;;;;13.63;6.30;;;3.70;99.90;;;;;;5006982;28;20128;-74
2023/01/24 04:07:18;;;;;;;14.35;6.10;;;3.70;99.90;;;;;;5003296;28;20398;-73
2023/01/24 04:09:44;;;;;;;13.10;6.03;;;3.70;99.90;;;;;;5007083;28;20470;-73
2023/01/24 04:12:09;;;;;;;14.80;5.72;;;3.70;99.90;;;;;;5006573;28;20068;-74
2023/01/24 04:14:35;;;;;;;14.82;6.57;;;3.70;99.90;;;;;;5004097;28;20037;-74
2023/01/24 04:17:00;;;;;;;11.68;6.25;;;3.70;99.90;;;;;;5005918;28;20036;-71
2023/01/24 04:19:26;;;;;;;15.25;6.30;;;3.70;99.90;;;;;;5008584;28;20034;-73
2023/01/24 04:21:52;;;;;;;13.73;7.00;;;3.60;99.90;;;;;;5007682;28;20046;-74
2023/01/24 04:24:17;;;;;;;13.30;6.20;;;3.60;99.90;;;;;;5005514;28;20030;-73
2023/01/24 04:26:43;;;;;;;12.85;5.72;;;3.70;99.90;;;;;;5010477;28;20038;-74
2023/01/24 04:29:09;;;;;;;13.02;6.85;;;3.60;99.90;;;;;;5009785;28;20030;-74
2023/01/24 04:31:34;;;;;;;12.73;6.60;;;3.70;99.90;;;;;;5010452;28;20057;-74
2023/01/24 04:34:00;;;;;;;16.90;6.45;;;3.60;99.90;;;;;;5011331;28;20075;-74
2023/01/24 04:36:25;;;;;;;12.15;6.15;;;3.70;99.90;;;;;;5009988;28;20046;-74
2023/01/24 04:38:51;;;;;;;14.60;6.90;;;3.60;99.90;;;;;;5008832;28;20494;-73
2023/01/24 04:41:17;;;;;;;14.95;5.97;;;3.50;99.90;;;;;;5010246;28;20045;-73
2023/01/24 04:43:42;;;;;;;14.50;5.75;;;3.60;99.90;;;;;;5009778;28;20033;-74
2023/01/24 04:46:08;;;;;;;12.05;5.68;;;3.60;99.90;;;;;;5008463;28;20638;-74
2023/01/24 04:48:34;;;;;;;12.35;5.28;;;3.60;99.90;;;;;;5010665;28;20033;-73
2023/01/24 04:51:00;;;;;;;11.35;5.53;;;3.60;99.90;;;;;;5010045;28;20053;-73
2023/01/24 04:53:26;;;;;;;12.38;5.68;;;3.60;99.90;;;;;;5008186;28;20041;-74
2023/01/24 04:55:52;;;;;;;14.40;5.65;;;3.50;99.90;;;;;;5008835;28;20034;-74
2023/01/24 04:58:18;;;;;;;12.10;5.80;;;3.50;99.90;;;;;;5010030;28;20034;-74
2023/01/24 05:00:43;;;;;;;10.90;5.45;;;3.40;99.90;;;;;;5009391;28;20042;-73
2023/01/24 05:03:09;;;;;;;13.73;5.00;;;3.50;99.90;;;;;;5008477;28;20042;-74
2023/01/24 05:05:34;;;;;;;12.75;5.53;;;3.50;99.90;;;;;;5008520;28;20076;-73
2023/01/24 05:08:00;;;;;;;13.48;6.00;;;3.50;99.90;;;;;;5009199;28;20045;-74
2023/01/24 05:10:26;;;;;;;13.38;6.07;;;3.50;99.90;;;;;;5009914;28;20394;-73
2023/01/24 05:12:51;;;;;;;12.88;5.75;;;3.50;99.90;;;;;;5009078;28;20033;-73
2023/01/24 05:15:22;;;;;;;12.25;5.75;;;3.50;99.90;;;;;;5009550;28;20494;-76
2023/01/24 05:17:47;;;;;;;13.00;5.40;;;3.50;99.90;;;;;;5008813;28;20037;-73
2023/01/24 05:20:13;;;;;;;13.90;6.25;;;3.40;99.90;;;;;;5008371;28;20038;-73
2023/01/24 05:22:39;;;;;;;11.95;5.55;;;3.50;99.90;;;;;;5009094;28;20136;-73
2023/01/24 05:25:05;;;;;;;13.63;6.20;;;3.50;99.90;;;;;;5007238;28;20632;-73
2023/01/24 05:27:31;;;;;;;13.57;6.10;;;3.50;99.90;;;;;;5012224;28;20065;-72
2023/01/24 05:29:56;;;;;;;13.88;6.57;;;3.50;99.90;;;;;;5011357;28;20033;-74
2023/01/24 05:32:22;;;;;;;13.20;6.25;;;3.50;99.90;;;;;;5009843;28;20045;-74
2023/01/24 05:34:48;;;;;;;15.23;7.38;;;3.50;99.90;;;;;;5007544;28;20038;-73
2023/01/24 05:37:13;;;;;;;14.63;6.95;;;3.50;99.90;;;;;;5014168;28;20041;-73
2023/01/24 05:39:39;;;;;;;13.18;6.85;;;3.40;99.90;;;;;;5026992;28;20101;-75
2023/01/24 05:42:04;;;;;;;13.00;6.18;;;3.40;99.90;;;;;;5008419;28;20025;-74
2023/01/24 05:44:30;;;;;;;15.57;7.07;;;3.40;99.90;;;;;;5008242;28;20049;-73
2023/01/24 05:46:55;;;;;;;13.00;6.80;;;3.50;99.90;;;;;;5007278;28;20042;-73
2023/01/24 05:49:21;;;;;;;12.90;6.55;;;3.50;99.90;;;;;;5009004;28;20052;-73
2023/01/24 05:51:47;;;;;;;16.45;7.65;;;3.40;99.90;;;;;;5008984;28;20054;-72
2023/01/24 05:54:12;;;;;;;13.77;6.47;;;3.40;99.90;;;;;;5007140;28;20549;-72
2023/01/24 05:56:38;;;;;;;14.60;7.18;;;3.40;99.90;;;;;;5006337;28;20036;-74
2023/01/24 05:59:04;;;;;;;14.45;7.75;;;3.40;99.90;;;;;;5001002;28;20118;-74
2023/01/24 06:01:30;;;;;;;15.65;7.70;;;3.30;99.90;;;;;;5006794;28;20045;-74
2023/01/24 06:03:56;;;;;;;15.85;7.43;;;3.30;99.90;;;;;;5007683;28;20410;-74
2023/01/24 06:06:23;;;;;;;14.20;6.63;;;3.20;99.90;;;;;;5002663;28;20049;-73
2023/01/24 06:08:50;;;;;;;14.38;6.88;;;3.20;99.90;;;;;;5002023;28;20543;-73
2023/01/24 06:11:21;;;;;;;15.00;6.22;;;3.30;99.90;;;;;;4999503;28;20509;-74
2023/01/24 06:13:47;;;;;;;17.25;6.22;;;3.30;99.90;;;;;;5003392;28;20034;-73
2023/01/24 06:16:15;;;;;;;15.13;6.60;;;3.30;99.90;;;;;;4995407;28;20585;-73
2023/01/24 06:18:42;;;;;;;12.52;6.22;;;3.40;99.90;;;;;;5003492;28;20045;-73
2023/01/24 06:21:31;;;;;;;13.23;6.72;;;3.20;99.90;;;;;;4995580;28;20110;-73
2023/01/24 06:23:57;;;;;;;14.57;7.20;;;3.30;99.90;;;;;;5000292;28;20041;-73
2023/01/24 06:26:23;;;;;;;13.10;6.40;;;3.20;99.90;;;;;;5000446;28;20141;-73
2023/01/24 06:28:49;;;;;;;16.73;8.18;;;3.20;99.90;;;;;;5014545;28;20041;-73
2023/01/24 06:31:40;;;;;;;18.17;7.70;;;3.20;99.90;;;;;;5000208;28;20040;-74
2023/01/24 06:34:54;;;;;;;16.30;7.35;;;3.30;99.90;;;;;;5007013;28;20030;-73
2023/01/24 06:37:24;;;;;;;17.70;7.22;;;3.30;99.90;;;;;;5000193;28;20128;-73
2023/01/24 06:39:52;;;;;;;17.73;8.75;;;3.20;99.90;;;;;;5000410;28;20038;-72
2023/01/24 06:42:19;;;;;;;16.33;8.00;;;3.30;99.90;;;;;;5004378;28;21947;-73
2023/01/24 06:44:45;;;;;;;15.85;7.53;;;3.20;99.90;;;;;;5001783;28;20384;-74
2023/01/24 06:47:11;;;;;;;14.13;6.68;;;3.20;99.90;;;;;;5005260;28;20038;-73
2023/01/24 06:49:38;;;;;;;17.48;8.23;;;3.20;99.90;;;;;;5006379;28;20112;-73
2023/01/24 06:52:04;;;;;;;19.50;8.27;;;3.10;99.90;;;;;;4998001;28;20041;-73
2023/01/24 06:54:30;;;;;;;18.45;8.35;;;3.10;99.90;;;;;;5004799;28;20034;-75
2023/01/24 06:56:55;;;;;;;20.75;8.90;;;3.20;99.90;;;;;;5002692;28;20126;-74
2023/01/24 06:59:22;;;;;;;16.00;7.68;;;3.10;99.90;;;;;;5016651;28;20098;-72
2023/01/24 07:01:49;;;;;;;18.98;8.98;;;3.10;99.90;;;;;;5003381;28;20525;-73
2023/01/24 07:04:14;;;;;;;22.50;8.60;;;3.10;99.90;;;;;;5000509;28;20033;-73
2023/01/24 07:06:40;;;;;;;22.02;8.80;;;3.10;99.90;;;;;;5001458;28;20049;-73
2023/01/24 07:09:06;;;;;;;18.98;7.82;;;3.10;99.90;;;;;;4997877;28;20034;-73
2023/01/24 07:11:32;;;;;;;19.92;9.07;;;3.00;99.90;;;;;;5005946;28;20037;-72
2023/01/24 07:13:58;;;;;;;18.27;8.73;;;3.00;99.90;;;;;;4999094;28;20057;-72
2023/01/24 07:16:23;;;;;;;15.77;8.55;;;3.00;99.90;;;;;;5002889;28;20155;-73
2023/01/24 07:18:49;;;;;;;21.88;8.48;;;3.00;99.90;;;;;;5003704;28;20037;-73
2023/01/24 07:21:15;;;;;;;18.48;8.15;;;2.90;99.90;;;;;;5004815;28;20049;-74
2023/01/24 07:23:45;;;;;;;18.92;8.52;;;3.00;99.90;;;;;;5004805;28;20033;-75
2023/01/24 07:26:11;;;;;;;21.83;9.05;;;3.00;99.90;;;;;;5009134;28;20038;-72
2023/01/24 07:28:38;;;;;;;18.25;8.48;;;3.10;99.90;;;;;;5002019;28;20038;-74
2023/01/24 07:31:03;;;;;;;18.02;8.02;;;3.00;99.90;;;;;;4987089;28;20034;-71
2023/01/24 07:33:30;;;;;;;23.38;8.00;;;3.10;99.90;;;;;;5004915;28;20037;-72
2023/01/24 07:35:55;;;;;;;25.42;9.15;;;3.10;99.90;;;;;;4995623;28;20026;-73
2023/01/24 07:38:21;;;;;;;19.00;8.20;;;3.10;99.90;;;;;;4999844;28;22278;-72
2023/01/24 07:40:46;;;;;;;20.52;8.45;;;3.00;99.90;;;;;;5000426;28;20062;-73
2023/01/24 07:43:13;;;;;;;19.13;9.00;;;3.10;99.90;;;;;;5009530;28;20029;-73
2023/01/24 07:45:38;;;;;;;16.65;7.35;;;3.10;99.90;;;;;;5010171;28;20030;-73
2023/01/24 07:48:09;;;;;;;21.73;8.88;;;3.10;99.90;;;;;;4996540;28;20549;-71
2023/01/24 07:50:35;;;;;;;19.17;8.65;;;3.00;99.90;;;;;;4999566;28;20037;-72
2023/01/24 07:53:01;;;;;;;19.10;9.20;;;3.00;99.90;;;;;;5003635;28;20045;-73
2023/01/24 07:55:26;;;;;;;18.77;8.98;;;3.00;99.90;;;;;;4997713;28;20044;-72
2023/01/24 07:57:57;;;;;;;19.35;8.25;;;3.10;99.90;;;;;;4997698;28;20058;-74
2023/01/24 08:00:22;;;;;;;19.38;8.60;;;3.10;99.90;;;;;;5001290;28;20141;-73
2023/01/24 08:02:49;;;;;;;17.80;8.35;;;3.10;99.90;;;;;;5008550;28;20121;-73
2023/01/24 08:05:14;;;;;;;18.02;8.35;;;3.10;99.90;;;;;;5002897;28;20093;-73
2023/01/24 08:07:40;;;;;;;18.02;8.40;;;3.20;99.90;;;;;;5017662;28;20034;-72
2023/01/24 08:10:06;;;;;;;18.85;8.30;;;3.10;99.90;;;;;;5005816;28;20026;-71
2023/01/24 08:12:32;;;;;;;19.13;9.50;;;3.10;99.90;;;;;;5000290;28;20038;-71
2023/01/24 08:14:57;;;;;;;17.63;9.45;;;3.00;99.90;;;;;;5018611;28;20033;-75
2023/01/24 08:17:23;;;;;;;19.05;8.20;;;3.10;99.90;;;;;;5009964;28;20034;-74
2023/01/24 08:19:49;;;;;;;19.65;8.45;;;3.10;99.90;;;;;;5002818;28;20109;-73
2023/01/24 08:22:14;;;;;;;18.95;8.43;;;3.10;99.90;;;;;;5005196;28;20028;-73
2023/01/24 08:24:40;;;;;;;19.80;8.20;;;3.10;99.90;;;;;;5003309;28;20034;-73
2023/01/24 08:27:05;;;;;;;21.40;10.30;;;3.00;99.90;;;;;;5021612;28;20032;-72
2023/01/24 08:29:31;;;;;;;21.63;8.98;;;3.10;99.90;;;;;;5006152;28;20037;-72
2023/01/24 08:31:58;;;;;;;17.00;7.90;;;3.10;99.90;;;;;;5001374;28;20425;-73
2023/01/24 08:34:24;;;;;;;15.82;7.70;;;3.10;99.90;;;;;;5009288;28;20539;-73
2023/01/24 08:36:49;;;;;;;18.35;8.07;;;3.20;99.90;;;;;;5008084;28;20034;-74
2023/01/24 08:39:15;;;;;;;15.55;7.53;;;3.20;99.90;;;;;;5005795;28;20109;-73
2023/01/24 08:41:43;;;;;;;17.95;8.00;;;3.10;99.90;;;;;;5015661;28;20041;-72
2023/01/24 08:44:09;;;;;;;15.98;7.43;;;3.10;99.90;;;;;;5007830;28;20040;-73
2023/01/24 08:46:34;;;;;;;18.50;8.23;;;3.10;99.90;;;;;;5005646;28;20030;-72
2023/01/24 08:49:01;;;;;;;19.75;7.88;;;3.10;99.90;;;;;;5016285;28;20438;-72
2023/01/24 08:51:27;;;;;;;18.05;8.07;;;3.10;99.90;;;;;;5001407;28;20060;-73
2023/01/24 08:53:53;;;;;;;19.30;7.95;;;3.10;99.90;;;;;;5006926;28;20469;-73
2023/01/24 08:56:18;;;;;;;21.13;8.65;;;3.10;99.90;;;;;;5007025;28;20038;-72
2023/01/24 08:58:44;;;;;;;19.38;8.18;;;3.10;99.90;;;;;;5009967;28;20041;-72
2023/01/24 09:01:10;;;;;;;17.15;8.23;;;3.10;99.90;;;;;;5003030;28;20046;-73
2023/01/24 09:03:36;;;;;;;16.95;7.22;;;3.10;99.90;;;;;;5008820;28;20170;-73
2023/01/24 09:06:01;;;;;;;17.60;8.05;;;3.10;99.90;;;;;;5007792;28;20589;-73
2023/01/24 09:08:27;;;;;;;16.42;7.78;;;3.10;99.90;;;;;;5005707;28;20042;-74
2023/01/24 09:10:53;;;;;;;16.52;7.50;;;3.10;99.90;;;;;;4997807;28;20037;-73
2023/01/24 09:13:18;;;;;;;19.45;7.90;;;3.10;99.90;;;;;;4999640;28;20034;-72
2023/01/24 09:15:44;;;;;;;20.50;8.35;;;3.00;99.90;;;;;;5002479;28;20042;-72
2023/01/24 09:18:10;;;;;;;18.02;8.45;;;3.00;99.90;;;;;;5006097;28;20030;-73
2023/01/24 09:20:35;;;;;;;20.88;9.85;;;3.00;99.90;;;;;;5004443;28;20041;-73
2023/01/24 09:23:08;;;;;;;21.30;9.27;;;3.00;99.90;;;;;;5007581;28;24760;-73
2023/01/24 09:25:34;;;;;;;19.58;9.85;;;3.10;99.90;;;;;;5000755;28;20025;-74
2023/01/24 09:27:59;;;;;;;17.30;7.60;;;3.10;99.90;;;;;;5004850;28;20049;-73
2023/01/24 09:30:25;;;;;;;18.73;8.73;;;3.10;99.90;;;;;;4995600;28;20384;-73
2023/01/24 09:32:51;;;;;;;18.50;7.43;;;3.20;99.90;;;;;;5013698;28;20038;-73
2023/01/24 09:35:16;;;;;;;19.50;8.73;;;3.10;99.90;;;;;;5006075;28;20091;-73
2023/01/24 09:37:42;;;;;;;15.48;7.70;;;3.10;99.90;;;;;;5004670;28;20041;-73
2023/01/24 09:40:20;;;;;;;17.63;8.13;;;3.20;99.90;;;;;;5009139;28;20081;-72
2023/01/24 09:43:00;;;;;;;19.35;8.93;;;3.30;99.90;;;;;;5008389;28;20125;-73
2023/01/24 09:45:37;;;;;;;16.25;7.55;;;3.30;99.90;;;;;;5021782;28;20464;-73
2023/01/24 09:48:10;;;;;;;18.83;8.45;;;3.20;99.90;;;;;;5022129;28;20076;-71
2023/01/24 09:50:46;;;;;;;17.55;7.75;;;3.20;99.90;;;;;;5000837;28;20034;-73
2023/01/24 09:53:24;;;;;;;19.40;8.55;;;3.20;99.90;;;;;;5002702;28;20440;-74
2023/01/24 09:55:51;;;;;;;19.13;8.38;;;3.20;99.90;;;;;;5004880;28;20097;-73
2023/01/24 09:58:33;;;;;;;15.00;7.65;;;3.10;99.90;;;;;;5003752;28;20033;-75
2023/01/24 10:01:11;;;;;;;15.63;7.90;;;3.10;99.90;;;;;;5004378;28;20065;-73
2023/01/24 10:03:39;;;;;;;18.95;7.72;;;3.30;99.90;;;;;;5002807;28;20433;-73
2023/01/24 10:06:22;;;;;;;18.38;7.65;;;3.20;99.90;;;;;;5005807;28;20095;-76
2023/01/24 10:08:57;;;;;;;17.88;7.82;;;3.30;99.90;;;;;;5005007;28;20041;-73
2023/01/24 10:11:34;;;;;;;14.60;7.40;;;3.30;99.90;;;;;;5008103;28;20119;-74
2023/01/24 10:14:18;;;;;;;17.25;7.90;;;3.30;99.90;;;;;;5021582;28;20115;-75
2023/01/24 10:16:58;;;;;;;16.95;8.00;;;3.30;99.90;;;;;;5001168;28;20065;-75
2023/01/24 10:19:27;;;;;;;15.98;7.75;;;3.30;99.90;;;;;;5000768;28;20546;-73
2023/01/24 10:22:09;;;;;;;15.52;6.72;;;3.30;99.90;;;;;;4997553;28;20686;-74
2023/01/24 10:24:38;;;;;;;15.52;7.28;;;3.40;99.90;;;;;;4998472;28;20052;-74
2023/01/24 10:27:20;;;;;;;23.15;8.27;;;3.30;99.90;;;;;;5001511;28;20072;-75
2023/01/24 10:29:53;;;;;;;16.83;7.75;;;3.30;99.90;;;;;;4999768;28;20506;-73
2023/01/24 10:32:30;;;;;;;17.00;7.93;;;3.30;99.90;;;;;;5002122;28;20036;-73
2023/01/24 10:35:21;;;;;;;16.92;6.97;;;3.30;99.90;;;;;;5004591;28;20037;-74
2023/01/24 10:37:55;;;;;;;16.55;7.40;;;3.40;99.90;;;;;;4996616;28;21014;-74
2023/01/24 10:40:24;;;;;;;14.85;6.63;;;3.40;99.90;;;;;;4999463;28;20418;-73
2023/01/24 10:42:50;;;;;;;16.55;7.65;;;3.40;99.90;;;;;;4999034;28;20036;-75
2023/01/24 10:45:39;;;;;;;14.77;6.88;;;3.50;99.90;;;;;;5004096;28;20032;-75
2023/01/24 10:48:22;;;;;;;19.58;7.32;;;3.40;99.90;;;;;;5017464;28;20499;-74
2023/01/24 10:50:48;;;;;;;15.55;6.45;;;3.40;99.90;;;;;;4999371;28;20034;-74
2023/01/24 10:53:25;;;;;;;14.07;6.50;;;3.30;99.90;;;;;;4998079;28;20449;-74
2023/01/24 10:56:02;;;;;;;12.63;6.78;;;3.40;99.90;;;;;;4996649;28;20453;-74
2023/01/24 10:58:32;;;;;;;19.73;8.30;;;3.30;99.90;;;;;;5001621;28;20088;-73
2023/01/24 11:01:08;;;;;;;20.30;8.73;;;3.40;99.90;;;;;;5017221;28;20487;-75
2023/01/24 11:03:40;;;;;;;15.23;7.13;;;3.40;99.90;;;;;;4996487;28;20160;-76
2023/01/24 11:06:24;;;;;;;13.63;6.70;;;3.40;99.90;;;;;;5005199;28;20046;-77
2023/01/24 11:08:55;;;;;;;15.90;7.30;;;3.30;99.90;;;;;;5007802;28;20043;-74
2023/01/24 11:11:28;;;;;;;14.32;6.53;;;3.40;99.90;;;;;;5003856;28;20069;-75
2023/01/24 11:13:58;;;;;;;20.42;7.22;;;3.50;99.90;;;;;;5000083;28;20041;-76
2023/01/24 11:16:31;;;;;;;15.50;7.03;;;3.50;99.90;;;;;;4991390;28;20415;-75
2023/01/24 11:19:03;;;;;;;16.23;6.95;;;3.50;99.90;;;;;;5002854;28;20034;-74
2023/01/24 11:21:30;;;;;;;18.27;7.38;;;3.60;99.90;;;;;;5011010;28;20044;-75
2023/01/24 11:24:04;;;;;;;14.45;6.60;;;3.50;99.90;;;;;;5000469;28;20034;-75
2023/01/24 11:26:35;;;;;;;16.48;7.60;;;3.50;99.90;;;;;;5013183;28;22140;-75
2023/01/24 11:29:16;;;;;;;19.23;8.18;;;3.60;99.90;;;;;;5001965;28;20461;-74
2023/01/24 11:31:51;;;;;;;16.17;7.28;;;3.60;99.90;;;;;;5002634;28;20045;-74
2023/01/24 11:34:28;;;;;;;16.52;7.15;;;3.60;99.90;;;;;;4998616;28;20049;-74
2023/01/24 11:37:05;;;;;;;16.85;7.45;;;3.60;99.90;;;;;;4995041;28;20049;-75
2023/01/24 11:39:33;;;;;;;15.68;6.80;;;3.50;99.90;;;;;;5005493;28;20034;-73
2023/01/24 11:42:16;;;;;;;17.50;7.05;;;3.50;99.90;;;;;;5004318;28;20042;-74
2023/01/24 11:45:00;;;;;;;16.95;7.95;;;3.50;99.90;;;;;;5008194;28;20081;-74
2023/01/24 11:47:40;;;;;;;15.60;6.82;;;3.50;99.90;;;;;;5005412;28;20054;-74
2023/01/24 11:50:34;;;;;;;14.05;6.57;;;3.50;99.90;;;;;;5003636;28;20121;-73
2023/01/24 11:53:19;;;;;;;17.75;7.30;;;3.60;99.90;;;;;;5005578;28;20033;-76
2023/01/24 11:56:05;;;;;;;17.10;7.20;;;3.60;99.90;;;;;;5007892;28;20053;-79
2023/01/24 11:59:00;;;;;;;20.48;8.60;;;3.60;99.90;;;;;;5005215;28;20109;-73
2023/01/24 12:01:34;;;;;;;13.80;6.70;;;3.60;99.90;;;;;;5001521;28;20041;-72
2023/01/24 12:04:21;;;;;;;14.65;6.45;;;3.60;99.90;;;;;;4998507;28;20046;-73
2023/01/24 12:06:58;;;;;;;18.45;6.88;;;3.50;99.90;;;;;;5005787;28;20038;-73
2023/01/24 12:09:36;;;;;;;14.75;6.72;;;3.50;99.90;;;;;;5003435;28;20042;-73
2023/01/24 12:12:14;;;;;;;17.38;7.80;;;3.60;99.90;;;;;;5011041;28;20041;-73
2023/01/24 12:14:51;;;;;;;13.73;6.10;;;3.50;99.90;;;;;;5006488;28;20044;-73
2023/01/24 12:17:51;;;;;;;14.75;6.60;;;3.50;99.90;;;;;;4998027;28;20285;-73
2023/01/24 12:20:17;;;;;;;15.95;7.25;;;3.50;99.90;;;;;;5021649;28;20129;-74
2023/01/24 12:22:43;;;;;;;20.00;9.10;;;3.40;99.90;;;;;;5017902;28;20141;-73
2023/01/24 12:25:11;;;;;;;14.98;6.28;;;3.40;99.90;;;;;;4996031;28;20092;-74
2023/01/24 12:27:38;;;;;;;14.52;6.82;;;3.40;99.90;;;;;;5017162;28;20561;-73
2023/01/24 12:30:13;;;;;;;15.77;6.78;;;3.50;99.90;;;;;;5022034;28;20116;-73
2023/01/24 12:32:53;;;;;;;16.45;6.85;;;3.60;99.90;;;;;;5008584;28;20038;-73
2023/01/24 12:35:41;;;;;;;15.60;6.13;;;3.50;99.90;;;;;;5003983;28;20034;-73
2023/01/24 12:38:29;;;;;;;15.80;7.53;;;3.50;99.90;;;;;;5004938;28;20772;-74
2023/01/24 12:41:30;;;;;;;13.57;6.35;;;3.60;99.90;;;;;;5004250;28;20052;-73
2023/01/24 12:44:32;;;;;;;16.17;6.95;;;3.70;99.90;;;;;;4980406;28;20037;-73
2023/01/24 12:47:24;;;;;;;13.57;6.20;;;3.70;99.90;;;;;;5007087;28;20736;-74
2023/01/24 12:50:01;;;;;;;16.45;7.10;;;3.70;99.90;;;;;;5005550;28;20045;-73
2023/01/24 12:52:32;;;;;;;15.85;7.13;;;3.80;99.90;;;;;;4999825;28;20517;-72
2023/01/24 12:55:15;;;;;;;16.58;6.50;;;3.70;99.90;;;;;;4996611;28;20057;-72
2023/01/24 12:57:48;;;;;;;15.15;6.68;;;3.70;99.90;;;;;;4982993;28;20125;-73
2023/01/24 13:00:18;;;;;;;12.98;6.50;;;3.70;99.90;;;;;;4983340;28;20418;-74
2023/01/24 13:03:02;;;;;;;15.38;5.70;;;3.70;99.90;;;;;;4985208;28;20034;-73
2023/01/24 13:05:44;;;;;;;13.70;6.25;;;3.60;99.90;;;;;;5016797;28;20042;-73
2023/01/24 13:08:22;;;;;;;13.23;5.70;;;3.60;99.90;;;;;;4986207;28;20031;-73
2023/01/24 13:11:07;;;;;;;13.38;6.43;;;3.70;99.90;;;;;;4999858;28;20053;-74
2023/01/24 13:13:42;;;;;;;13.38;5.65;;;3.70;99.90;;;;;;5001365;28;20073;-72
2023/01/24 13:16:44;;;;;;;15.40;6.05;;;3.70;99.90;;;;;;4996310;28;20038;-72
2023/01/24 13:19:23;;;;;;;12.50;5.53;;;3.70;99.90;;;;;;4998944;28;20133;-73
2023/01/24 13:22:02;;;;;;;14.90;6.23;;;3.70;99.90;;;;;;4996631;28;20092;-73
2023/01/24 13:24:37;;;;;;;17.27;7.32;;;3.70;99.90;;;;;;4967565;28;20043;-72
2023/01/24 13:27:27;;;;;;;14.52;5.70;;;3.70;99.90;;;;;;4968059;28;20039;-74
2023/01/24 13:30:02;;;;;;;15.50;6.47;;;3.60;99.90;;;;;;4970663;28;20165;-74
2023/01/24 13:32:29;;;;;;;15.38;5.95;;;3.70;99.90;;;;;;4967497;28;20118;-74
2023/01/24 13:34:58;;;;;;;14.77;6.30;;;3.70;99.90;;;;;;4967665;28;20106;-73
2023/01/24 13:37:25;;;;;;;12.93;6.47;;;3.70;99.90;;;;;;4969912;28;20042;-73
2023/01/24 13:40:15;;;;;;;16.42;6.45;;;3.60;99.90;;;;;;4971159;28;20043;-74
2023/01/24 13:42:41;;;;;;;15.52;6.78;;;3.70;99.90;;;;;;4986580;28;20048;-75
2023/01/24 13:45:25;;;;;;;13.43;6.55;;;3.70;99.90;;;;;;4966181;28;20031;-73